createdAt,value
2023-10-03T00:00:35.402Z,999.81
2023-10-03T00:01:35.334Z,999.78
2023-10-03T00:02:35.361Z,999.75
2023-10-03T00:03:35.391Z,999.72
2023-10-03T00:04:35.373Z,999.72
2023-10-03T00:05:35.295Z,999.72
2023-10-03T00:06:35.233Z,999.72
2023-10-03T00:07:35.219Z,999.74
2023-10-03T00:08:35.254Z,999.71
2023-10-03T00:09:35.207Z,999.72
2023-10-03T00:10:35.249Z,999.71
2023-10-03T00:11:35.185Z,999.69
2023-10-03T00:12:35.161Z,999.67
2023-10-03T00:13:35.170Z,999.69
2023-10-03T00:14:42.769Z,999.68
2023-10-03T00:15:35.115Z,999.68
2023-10-03T00:16:35.150Z,999.67
2023-10-03T00:17:35.123Z,999.65
2023-10-03T00:18:35.168Z,999.61
2023-10-03T00:19:35.120Z,999.57
2023-10-03T00:20:35.085Z,999.57
2023-10-03T00:21:35.055Z,999.55
2023-10-03T00:22:35.043Z,999.52
2023-10-03T00:23:35.097Z,999.50
2023-10-03T00:24:35.058Z,999.47
2023-10-03T00:25:41.545Z,999.43
2023-10-03T00:26:35.050Z,999.39
2023-10-03T00:27:34.993Z,999.37
2023-10-03T00:28:35.070Z,999.35
2023-10-03T00:29:35.000Z,999.33
2023-10-03T00:30:35.006Z,999.30
2023-10-03T00:31:34.964Z,999.28
2023-10-03T00:32:35.021Z,999.28
2023-10-03T00:33:35.033Z,999.29
2023-10-03T00:34:34.940Z,999.30
2023-10-03T00:35:34.973Z,999.27
2023-10-03T00:36:34.900Z,999.27
2023-10-03T00:37:34.915Z,999.23
2023-10-03T00:38:34.961Z,999.23
2023-10-03T00:39:34.897Z,999.24
2023-10-03T00:40:34.882Z,999.23
2023-10-03T00:41:34.850Z,999.22
2023-10-03T00:42:34.853Z,999.21
2023-10-03T00:43:34.863Z,999.19
2023-10-03T00:44:34.909Z,999.17
2023-10-03T00:45:34.841Z,999.16
2023-10-03T00:46:34.884Z,999.15
2023-10-03T00:47:34.869Z,999.12
2023-10-03T00:48:34.811Z,999.11
2023-10-03T00:49:34.769Z,999.10
2023-10-03T00:50:34.823Z,999.10
2023-10-03T00:51:34.801Z,999.08
2023-10-03T00:52:34.773Z,999.05
2023-10-03T00:53:34.769Z,999.04
2023-10-03T00:54:34.762Z,999.01
2023-10-03T00:55:34.700Z,998.98
2023-10-03T00:56:34.745Z,998.95
2023-10-03T00:57:34.739Z,998.93
2023-10-03T00:58:34.671Z,998.92
2023-10-03T00:59:34.783Z,998.90
2023-10-03T01:00:34.689Z,998.90
2023-10-03T01:01:34.685Z,998.88
2023-10-03T01:02:34.756Z,998.84
2023-10-03T01:03:34.953Z,998.83
2023-10-03T01:04:34.677Z,998.82
2023-10-03T01:05:34.640Z,998.78
2023-10-03T01:06:34.604Z,998.73
2023-10-03T01:07:34.607Z,998.73
2023-10-03T01:08:34.618Z,998.74
2023-10-03T01:09:34.585Z,998.78
2023-10-03T01:10:34.561Z,998.76
2023-10-03T01:11:34.613Z,998.73
2023-10-03T01:12:34.526Z,998.71
2023-10-03T01:13:34.536Z,998.69
2023-10-03T01:14:34.548Z,998.67
2023-10-03T01:15:34.536Z,998.64
2023-10-03T01:16:34.821Z,998.63
2023-10-03T01:17:34.562Z,998.59
2023-10-03T01:18:34.511Z,998.61
2023-10-03T01:19:34.475Z,998.53
2023-10-03T01:20:34.514Z,998.49
2023-10-03T01:21:34.439Z,998.45
2023-10-03T01:22:34.414Z,998.40
2023-10-03T01:23:34.426Z,998.36
2023-10-03T01:24:34.455Z,998.33
2023-10-03T01:25:34.402Z,998.26
2023-10-03T01:26:34.420Z,998.24
2023-10-03T01:27:34.369Z,998.22
2023-10-03T01:28:34.387Z,998.22
2023-10-03T01:29:34.406Z,998.22
2023-10-03T01:30:34.370Z,998.21
2023-10-03T01:31:34.355Z,998.19
2023-10-03T01:32:34.441Z,998.19
2023-10-03T01:33:34.358Z,998.17
2023-10-03T01:34:34.319Z,998.21
2023-10-03T01:35:34.325Z,998.21
2023-10-03T01:36:40.764Z,998.26
2023-10-03T01:37:34.265Z,998.24
2023-10-03T01:38:34.287Z,998.19
2023-10-03T01:39:34.244Z,998.16
2023-10-03T01:40:34.276Z,998.14
2023-10-03T01:41:34.325Z,998.10
2023-10-03T01:42:34.241Z,998.05
2023-10-03T01:43:34.225Z,998.02
2023-10-03T01:44:34.230Z,998.04
2023-10-03T01:45:34.251Z,998.05
2023-10-03T01:46:34.272Z,998.00
2023-10-03T01:47:34.228Z,997.98
2023-10-03T01:48:34.231Z,997.95
2023-10-03T01:49:34.150Z,997.92
2023-10-03T01:50:34.167Z,997.91
2023-10-03T01:51:34.115Z,997.86
2023-10-03T01:52:34.135Z,997.88
2023-10-03T01:53:34.171Z,997.85
2023-10-03T01:54:34.101Z,997.85
2023-10-03T01:55:34.093Z,997.83
2023-10-03T01:56:34.089Z,997.82
2023-10-03T01:57:34.098Z,997.79
2023-10-03T01:58:34.073Z,997.79
2023-10-03T01:59:34.098Z,997.79
2023-10-03T02:00:34.022Z,997.76
2023-10-03T02:01:34.082Z,997.70
2023-10-03T02:02:34.089Z,997.68
2023-10-03T02:03:34.629Z,997.62
2023-10-03T02:04:34.047Z,997.50
2023-10-03T02:05:33.994Z,997.47
2023-10-03T02:06:33.982Z,997.50
2023-10-03T02:07:33.952Z,997.49
2023-10-03T02:08:33.968Z,997.46
2023-10-03T02:09:33.940Z,997.41
2023-10-03T02:10:33.916Z,997.33
2023-10-03T02:11:34.008Z,997.28
2023-10-03T02:12:33.907Z,997.26
2023-10-03T02:13:33.905Z,997.23
2023-10-03T02:14:33.959Z,997.20
2023-10-03T02:15:33.922Z,997.18
2023-10-03T02:16:33.942Z,997.15
2023-10-03T02:17:33.927Z,997.11
2023-10-03T02:18:33.848Z,997.08
2023-10-03T02:19:33.818Z,997.05
2023-10-03T02:20:33.907Z,997.02
2023-10-03T02:21:33.802Z,997.01
2023-10-03T02:22:33.806Z,996.97
2023-10-03T02:23:34.094Z,996.94
2023-10-03T02:24:33.797Z,996.96
2023-10-03T02:25:33.818Z,996.89
2023-10-03T02:26:33.887Z,996.86
2023-10-03T02:27:33.789Z,996.83
2023-10-03T02:28:35.356Z,996.83
2023-10-03T02:29:33.758Z,996.80
2023-10-03T02:30:33.752Z,996.77
2023-10-03T02:31:33.738Z,996.75
2023-10-03T02:32:33.729Z,996.75
2023-10-03T02:33:33.706Z,996.71
2023-10-03T02:34:33.706Z,996.68
2023-10-03T02:35:33.704Z,996.68
2023-10-03T02:36:33.653Z,996.69
2023-10-03T02:37:33.660Z,996.64
2023-10-03T02:38:33.652Z,996.62
2023-10-03T02:39:33.635Z,996.57
2023-10-03T02:40:33.659Z,996.53
2023-10-03T02:41:33.638Z,996.53
2023-10-03T02:42:33.606Z,996.53
2023-10-03T02:43:33.592Z,996.52
2023-10-03T02:44:33.649Z,996.49
2023-10-03T02:45:33.584Z,996.46
2023-10-03T02:46:33.544Z,996.45
2023-10-03T02:47:33.544Z,996.44
2023-10-03T02:48:33.571Z,996.45
2023-10-03T02:49:33.513Z,996.43
2023-10-03T02:50:33.530Z,996.38
2023-10-03T02:51:33.493Z,996.39
2023-10-03T02:52:33.477Z,996.37
2023-10-03T02:53:33.559Z,996.33
2023-10-03T02:54:33.512Z,996.32
2023-10-03T02:55:33.463Z,996.25
2023-10-03T02:56:33.487Z,996.25
2023-10-03T02:57:33.441Z,996.25
2023-10-03T02:58:33.447Z,996.22
2023-10-03T02:59:33.460Z,996.19
2023-10-03T03:00:33.441Z,996.15
2023-10-03T03:01:33.436Z,996.15
2023-10-03T03:02:33.478Z,996.16
2023-10-03T03:03:34.056Z,996.15
2023-10-03T03:04:33.434Z,996.16
2023-10-03T03:05:40.892Z,996.14
2023-10-03T03:06:39.861Z,996.13
2023-10-03T03:07:33.369Z,996.10
2023-10-03T03:08:33.354Z,996.10
2023-10-03T03:09:33.300Z,996.06
2023-10-03T03:10:39.792Z,996.01
2023-10-03T03:11:33.304Z,996.00
2023-10-03T03:12:33.309Z,995.98
2023-10-03T03:13:33.540Z,996.01
2023-10-03T03:14:33.283Z,996.02
2023-10-03T03:15:33.245Z,996.03
2023-10-03T03:16:33.296Z,996.01
2023-10-03T03:17:33.344Z,996.03
2023-10-03T03:18:39.781Z,995.96
2023-10-03T03:19:33.255Z,995.93
2023-10-03T03:20:33.213Z,995.90
2023-10-03T03:21:33.198Z,995.92
2023-10-03T03:22:33.217Z,995.89
2023-10-03T03:23:39.672Z,995.90
2023-10-03T03:24:33.147Z,995.94
2023-10-03T03:25:33.163Z,995.99
2023-10-03T03:26:33.170Z,995.99
2023-10-03T03:27:33.150Z,995.94
2023-10-03T03:28:33.112Z,995.92
2023-10-03T03:29:33.133Z,995.87
2023-10-03T03:30:33.129Z,995.87
2023-10-03T03:31:33.301Z,995.89
2023-10-03T03:32:33.108Z,995.85
2023-10-03T03:33:33.173Z,995.83
2023-10-03T03:34:33.094Z,995.81
2023-10-03T03:35:33.074Z,995.78
2023-10-03T03:36:33.101Z,995.79
2023-10-03T03:37:33.036Z,995.76
2023-10-03T03:38:33.016Z,995.75
2023-10-03T03:39:40.844Z,995.77
2023-10-03T03:40:33.050Z,995.85
2023-10-03T03:41:33.003Z,995.87
2023-10-03T03:42:32.978Z,995.92
2023-10-03T03:43:32.967Z,995.96
2023-10-03T03:44:32.995Z,995.94
2023-10-03T03:45:32.995Z,995.91
2023-10-03T03:46:32.937Z,995.82
2023-10-03T03:47:33.021Z,995.74
2023-10-03T03:48:32.966Z,995.78
2023-10-03T03:49:32.953Z,995.81
2023-10-03T03:50:35.439Z,995.86
2023-10-03T03:51:32.857Z,995.94
2023-10-03T03:52:32.859Z,995.89
2023-10-03T03:53:32.895Z,995.86
2023-10-03T03:54:32.884Z,995.87
2023-10-03T03:55:32.838Z,995.86
2023-10-03T03:56:32.830Z,995.86
2023-10-03T03:57:32.859Z,995.85
2023-10-03T03:58:32.817Z,995.89
2023-10-03T03:59:32.850Z,995.92
2023-10-03T04:00:32.796Z,995.88
2023-10-03T04:01:32.786Z,995.87
2023-10-03T04:02:32.891Z,995.92
2023-10-03T04:03:32.878Z,996.00
2023-10-03T04:04:32.792Z,995.99
2023-10-03T04:05:32.781Z,995.94
2023-10-03T04:06:32.753Z,995.92
2023-10-03T04:07:32.732Z,995.94
2023-10-03T04:08:32.747Z,996.04
2023-10-03T04:09:32.715Z,995.98
2023-10-03T04:10:32.697Z,996.01
2023-10-03T04:11:39.185Z,996.09
2023-10-03T04:12:32.723Z,996.09
2023-10-03T04:13:32.623Z,996.04
2023-10-03T04:14:32.643Z,996.05
2023-10-03T04:15:32.617Z,996.06
2023-10-03T04:16:32.602Z,996.09
2023-10-03T04:17:32.708Z,996.09
2023-10-03T04:18:32.636Z,996.07
2023-10-03T04:19:32.578Z,996.08
2023-10-03T04:20:32.645Z,996.10
2023-10-03T04:21:32.623Z,996.01
2023-10-03T04:22:32.568Z,996.06
2023-10-03T04:23:32.565Z,995.98
2023-10-03T04:24:32.522Z,995.98
2023-10-03T04:25:32.522Z,995.99
2023-10-03T04:26:32.712Z,995.96
2023-10-03T04:27:32.486Z,995.96
2023-10-03T04:28:32.535Z,995.94
2023-10-03T04:29:32.494Z,995.96
2023-10-03T04:30:32.476Z,996.06
2023-10-03T04:31:32.489Z,996.08
2023-10-03T04:32:32.509Z,996.13
2023-10-03T04:33:32.506Z,996.12
2023-10-03T04:34:32.416Z,996.11
2023-10-03T04:35:32.486Z,996.08
2023-10-03T04:36:32.433Z,996.03
2023-10-03T04:37:32.411Z,996.03
2023-10-03T04:38:32.412Z,996.01
2023-10-03T04:39:32.365Z,996.02
2023-10-03T04:40:32.400Z,996.02
2023-10-03T04:41:32.425Z,995.97
2023-10-03T04:42:32.375Z,995.95
2023-10-03T04:43:32.330Z,995.93
2023-10-03T04:44:32.386Z,995.87
2023-10-03T04:45:32.360Z,995.87
2023-10-03T04:46:32.317Z,995.82
2023-10-03T04:47:39.876Z,995.81
2023-10-03T04:48:32.376Z,995.80
2023-10-03T04:49:32.294Z,995.84
2023-10-03T04:50:39.940Z,995.78
2023-10-03T04:51:32.250Z,995.83
2023-10-03T04:52:32.266Z,995.77
2023-10-03T04:53:32.245Z,995.81
2023-10-03T04:54:32.250Z,995.79
2023-10-03T04:55:32.228Z,995.84
2023-10-03T04:56:32.223Z,995.85
2023-10-03T04:57:32.228Z,995.85
2023-10-03T04:58:32.181Z,995.90
2023-10-03T04:59:32.255Z,995.91
2023-10-03T05:00:32.152Z,995.89
2023-10-03T05:01:32.217Z,995.89
2023-10-03T05:02:32.201Z,995.90
2023-10-03T05:03:32.323Z,995.89
2023-10-03T05:04:32.214Z,995.92
2023-10-03T05:05:32.193Z,995.91
2023-10-03T05:06:32.096Z,995.92
2023-10-03T05:07:32.105Z,995.90
2023-10-03T05:08:32.106Z,995.90
2023-10-03T05:09:32.038Z,995.92
2023-10-03T05:10:32.007Z,995.93
2023-10-03T05:11:38.531Z,995.99
2023-10-03T05:12:31.988Z,995.97
2023-10-03T05:13:32.017Z,995.96
2023-10-03T05:14:32.027Z,995.95
2023-10-03T05:15:32.003Z,995.98
2023-10-03T05:16:32.026Z,995.97
2023-10-03T05:17:32.070Z,996.00
2023-10-03T05:18:32.147Z,995.94
2023-10-03T05:19:31.915Z,995.95
2023-10-03T05:20:31.963Z,995.92
2023-10-03T05:21:31.889Z,995.95
2023-10-03T05:22:31.962Z,995.97
2023-10-03T05:23:31.942Z,995.94
2023-10-03T05:24:31.893Z,996.00
2023-10-03T05:25:31.908Z,996.03
2023-10-03T05:26:31.847Z,995.99
2023-10-03T05:27:31.844Z,996.06
2023-10-03T05:28:31.826Z,996.00
2023-10-03T05:29:31.827Z,996.07
2023-10-03T05:30:31.801Z,996.05
2023-10-03T05:31:31.889Z,996.08
2023-10-03T05:32:39.556Z,996.07
2023-10-03T05:33:31.803Z,996.02
2023-10-03T05:34:31.742Z,996.03
2023-10-03T05:35:31.781Z,996.03
2023-10-03T05:36:31.750Z,995.98
2023-10-03T05:37:31.749Z,995.91
2023-10-03T05:38:31.746Z,995.94
2023-10-03T05:39:31.711Z,996.04
2023-10-03T05:40:39.363Z,996.04
2023-10-03T05:41:31.725Z,996.09
2023-10-03T05:42:31.661Z,996.08
2023-10-03T05:43:31.660Z,996.06
2023-10-03T05:44:31.678Z,996.08
2023-10-03T05:45:31.656Z,996.10
2023-10-03T05:46:31.696Z,996.05
2023-10-03T05:47:31.676Z,996.06
2023-10-03T05:48:33.718Z,996.03
2023-10-03T05:49:31.637Z,996.06
2023-10-03T05:50:31.640Z,996.02
2023-10-03T05:51:31.592Z,996.10
2023-10-03T05:52:31.575Z,996.11
2023-10-03T05:53:31.613Z,996.18
2023-10-03T05:54:31.545Z,996.17
2023-10-03T05:55:31.557Z,996.18
2023-10-03T05:56:31.576Z,996.22
2023-10-03T05:57:31.516Z,996.25
2023-10-03T05:58:31.505Z,996.25
2023-10-03T05:59:31.564Z,996.21
2023-10-03T06:00:31.563Z,996.28
2023-10-03T06:01:37.971Z,996.24
2023-10-03T06:02:31.508Z,996.22
2023-10-03T06:03:31.745Z,996.23
2023-10-03T06:04:31.554Z,996.30
2023-10-03T06:05:31.469Z,996.38
2023-10-03T06:06:31.479Z,996.55
2023-10-03T06:07:31.411Z,996.45
2023-10-03T06:08:31.431Z,996.47
2023-10-03T06:09:31.426Z,996.41
2023-10-03T06:10:31.397Z,996.51
2023-10-03T06:11:31.498Z,996.73
2023-10-03T06:12:31.392Z,996.71
2023-10-03T06:13:31.371Z,996.69
2023-10-03T06:14:31.440Z,996.62
2023-10-03T06:15:31.329Z,996.73
2023-10-03T06:16:31.343Z,996.79
2023-10-03T06:17:31.377Z,996.67
2023-10-03T06:18:31.450Z,996.61
2023-10-03T06:19:31.291Z,996.58
2023-10-03T06:20:31.335Z,996.56
2023-10-03T06:21:31.336Z,996.59
2023-10-03T06:22:31.272Z,996.62
2023-10-03T06:23:31.300Z,996.60
2023-10-03T06:24:31.274Z,996.57
2023-10-03T06:25:31.234Z,996.58
2023-10-03T06:26:31.236Z,996.58
2023-10-03T06:27:31.246Z,996.60
2023-10-03T06:28:31.238Z,996.63
2023-10-03T06:29:31.260Z,996.63
2023-10-03T06:30:31.175Z,996.70
2023-10-03T06:31:31.203Z,996.76
2023-10-03T06:32:31.308Z,996.85
2023-10-03T06:33:31.242Z,996.83
2023-10-03T06:34:31.147Z,996.77
2023-10-03T06:35:31.161Z,996.73
2023-10-03T06:36:31.136Z,996.74
2023-10-03T06:37:31.131Z,996.82
2023-10-03T06:38:31.123Z,996.89
2023-10-03T06:39:31.128Z,996.89
2023-10-03T06:40:31.075Z,996.92
2023-10-03T06:41:31.131Z,996.89
2023-10-03T06:42:31.119Z,996.94
2023-10-03T06:43:31.049Z,996.92
2023-10-03T06:44:31.070Z,996.89
2023-10-03T06:45:31.029Z,996.88
2023-10-03T06:46:31.067Z,996.87
2023-10-03T06:47:31.052Z,996.89
2023-10-03T06:48:31.094Z,996.94
2023-10-03T06:49:30.990Z,996.98
2023-10-03T06:50:30.995Z,996.99
2023-10-03T06:51:30.988Z,996.97
2023-10-03T06:52:30.948Z,996.93
2023-10-03T06:53:30.977Z,996.93
2023-10-03T06:54:30.974Z,997.02
2023-10-03T06:55:30.945Z,997.04
2023-10-03T06:56:30.940Z,997.06
2023-10-03T06:57:30.945Z,997.15
2023-10-03T06:58:30.921Z,997.19
2023-10-03T06:59:30.936Z,997.22
2023-10-03T07:00:30.968Z,997.21
2023-10-03T07:01:30.890Z,997.28
2023-10-03T07:02:30.901Z,997.32
2023-10-03T07:03:31.084Z,997.30
2023-10-03T07:04:37.382Z,997.33
2023-10-03T07:05:30.877Z,997.34
2023-10-03T07:06:30.803Z,997.33
2023-10-03T07:07:30.827Z,997.31
2023-10-03T07:08:30.877Z,997.32
2023-10-03T07:09:30.809Z,997.28
2023-10-03T07:10:30.815Z,997.34
2023-10-03T07:11:30.800Z,997.32
2023-10-03T07:12:37.246Z,997.39
2023-10-03T07:13:30.757Z,997.32
2023-10-03T07:14:30.744Z,997.36
2023-10-03T07:15:30.748Z,997.33
2023-10-03T07:16:30.733Z,997.42
2023-10-03T07:17:37.583Z,997.64
2023-10-03T07:18:30.763Z,997.58
2023-10-03T07:19:30.720Z,997.71
2023-10-03T07:20:30.744Z,997.66
2023-10-03T07:21:30.681Z,997.56
2023-10-03T07:22:30.663Z,997.64
2023-10-03T07:23:30.694Z,997.70
2023-10-03T07:24:30.650Z,997.67
2023-10-03T07:25:30.645Z,997.64
2023-10-03T07:26:30.633Z,997.64
2023-10-03T07:27:30.620Z,997.64
2023-10-03T07:28:30.702Z,997.59
2023-10-03T07:29:30.573Z,997.58
2023-10-03T07:30:30.696Z,997.49
2023-10-03T07:31:30.580Z,997.52
2023-10-03T07:32:31.623Z,997.48
2023-10-03T07:33:30.594Z,997.54
2023-10-03T07:34:30.528Z,997.50
2023-10-03T07:35:30.616Z,997.47
2023-10-03T07:36:30.495Z,997.55
2023-10-03T07:37:30.545Z,997.61
2023-10-03T07:38:30.523Z,997.66
2023-10-03T07:39:30.510Z,997.75
2023-10-03T07:40:30.459Z,997.67
2023-10-03T07:41:30.499Z,997.61
2023-10-03T07:42:30.450Z,997.66
2023-10-03T07:43:30.443Z,997.64
2023-10-03T07:44:30.444Z,997.63
2023-10-03T07:45:30.468Z,997.58
2023-10-03T07:46:30.467Z,997.61
2023-10-03T07:47:30.589Z,997.46
2023-10-03T07:48:30.678Z,997.53
2023-10-03T07:49:30.476Z,997.55
2023-10-03T07:50:30.396Z,997.58
2023-10-03T07:51:30.407Z,997.63
2023-10-03T07:52:30.350Z,997.69
2023-10-03T07:53:30.417Z,997.68
2023-10-03T07:54:30.306Z,997.68
2023-10-03T07:55:30.332Z,997.66
2023-10-03T07:56:30.384Z,997.74
2023-10-03T07:57:30.287Z,997.76
2023-10-03T07:58:30.276Z,997.72
2023-10-03T07:59:30.288Z,997.69
2023-10-03T08:00:36.748Z,997.69
2023-10-03T08:01:35.324Z,997.70
2023-10-03T08:02:30.300Z,997.71
2023-10-03T08:03:30.304Z,997.69
2023-10-03T08:04:30.394Z,997.68
2023-10-03T08:05:30.259Z,997.63
2023-10-03T08:06:30.213Z,997.56
2023-10-03T08:07:30.188Z,997.63
2023-10-03T08:08:30.217Z,997.64
2023-10-03T08:09:32.857Z,997.70
2023-10-03T08:10:30.329Z,997.70
2023-10-03T08:11:30.408Z,997.77
2023-10-03T08:12:30.141Z,997.75
2023-10-03T08:13:30.147Z,997.75
2023-10-03T08:14:30.137Z,997.77
2023-10-03T08:15:30.187Z,997.82
2023-10-03T08:16:30.100Z,997.75
2023-10-03T08:17:30.175Z,997.72
2023-10-03T08:18:30.179Z,997.68
2023-10-03T08:19:30.076Z,997.69
2023-10-03T08:20:30.126Z,997.71
2023-10-03T08:21:30.044Z,997.66
2023-10-03T08:22:30.020Z,997.71
2023-10-03T08:23:30.050Z,997.67
2023-10-03T08:24:30.118Z,997.67
2023-10-03T08:25:29.994Z,997.63
2023-10-03T08:26:30.106Z,997.66
2023-10-03T08:27:29.981Z,997.70
2023-10-03T08:28:29.978Z,997.76
2023-10-03T08:29:30.066Z,997.85
2023-10-03T08:30:30.333Z,997.90
2023-10-03T08:31:29.986Z,998.05
2023-10-03T08:32:29.984Z,997.90
2023-10-03T08:33:30.030Z,998.06
2023-10-03T08:34:29.948Z,998.01
2023-10-03T08:35:29.918Z,998.06
2023-10-03T08:36:29.869Z,998.05
2023-10-03T08:37:29.875Z,998.03
2023-10-03T08:38:29.915Z,998.06
2023-10-03T08:39:29.875Z,998.10
2023-10-03T08:40:29.844Z,998.18
2023-10-03T08:41:29.863Z,998.22
2023-10-03T08:42:29.829Z,998.23
2023-10-03T08:43:29.834Z,998.31
2023-10-03T08:44:29.815Z,998.36
2023-10-03T08:45:29.851Z,998.30
2023-10-03T08:46:29.862Z,998.40
2023-10-03T08:47:30.189Z,998.37
2023-10-03T08:48:29.845Z,998.42
2023-10-03T08:49:29.752Z,998.42
2023-10-03T08:50:29.785Z,998.52
2023-10-03T08:51:29.727Z,998.41
2023-10-03T08:52:29.766Z,998.48
2023-10-03T08:53:29.747Z,998.53
2023-10-03T08:54:29.689Z,998.54
2023-10-03T08:55:29.678Z,998.56
2023-10-03T08:56:29.707Z,998.60
2023-10-03T08:57:29.695Z,998.56
2023-10-03T08:58:29.661Z,998.56
2023-10-03T08:59:29.700Z,998.50
2023-10-03T09:00:29.642Z,998.41
2023-10-03T09:01:29.704Z,998.47
2023-10-03T09:02:29.692Z,998.53
2023-10-03T09:03:36.171Z,998.59
2023-10-03T09:04:29.649Z,998.63
2023-10-03T09:05:29.630Z,998.62
2023-10-03T09:06:37.555Z,998.55
2023-10-03T09:07:29.574Z,998.51
2023-10-03T09:08:29.666Z,998.60
2023-10-03T09:09:29.595Z,998.66
2023-10-03T09:10:29.545Z,998.71
2023-10-03T09:11:38.110Z,998.67
2023-10-03T09:12:29.516Z,998.82
2023-10-03T09:13:29.722Z,998.69
2023-10-03T09:14:29.561Z,998.65
2023-10-03T09:15:29.525Z,998.59
2023-10-03T09:16:29.553Z,998.63
2023-10-03T09:17:29.518Z,998.72
2023-10-03T09:18:29.601Z,998.75
2023-10-03T09:19:29.452Z,998.74
2023-10-03T09:20:29.775Z,998.78
2023-10-03T09:21:29.480Z,998.81
2023-10-03T09:22:29.426Z,998.63
2023-10-03T09:23:29.445Z,998.60
2023-10-03T09:24:29.412Z,998.73
2023-10-03T09:25:29.643Z,998.67
2023-10-03T09:26:29.393Z,998.70
2023-10-03T09:27:29.382Z,998.71
2023-10-03T09:28:29.404Z,998.72
2023-10-03T09:29:29.405Z,998.84
2023-10-03T09:30:29.531Z,998.86
2023-10-03T09:31:29.367Z,998.91
2023-10-03T09:32:29.552Z,998.93
2023-10-03T09:33:29.408Z,998.80
2023-10-03T09:34:29.368Z,998.80
2023-10-03T09:35:35.836Z,998.81
2023-10-03T09:36:29.314Z,998.93
2023-10-03T09:37:29.322Z,998.92
2023-10-03T09:38:29.274Z,998.91
2023-10-03T09:39:29.268Z,998.79
2023-10-03T09:40:29.237Z,998.90
2023-10-03T09:41:29.321Z,998.86
2023-10-03T09:42:29.213Z,998.79
2023-10-03T09:43:29.372Z,998.80
2023-10-03T09:44:29.237Z,998.76
2023-10-03T09:45:29.216Z,998.75
2023-10-03T09:46:29.212Z,998.80
2023-10-03T09:47:38.435Z,998.77
2023-10-03T09:48:38.230Z,998.74
2023-10-03T09:49:29.125Z,998.72
2023-10-03T09:50:29.265Z,998.72
2023-10-03T09:51:29.126Z,998.73
2023-10-03T09:52:29.099Z,998.71
2023-10-03T09:53:29.252Z,998.68
2023-10-03T09:54:29.080Z,998.63
2023-10-03T09:55:29.083Z,998.65
2023-10-03T09:56:29.098Z,998.72
2023-10-03T09:57:29.041Z,998.68
2023-10-03T09:58:29.089Z,998.71
2023-10-03T09:59:29.048Z,998.71
2023-10-03T10:00:29.046Z,998.83
2023-10-03T10:01:29.087Z,998.84
2023-10-03T10:02:29.074Z,998.88
2023-10-03T10:03:29.195Z,998.92
2023-10-03T10:04:29.161Z,999.01
2023-10-03T10:05:29.095Z,999.02
2023-10-03T10:06:28.956Z,999.05
2023-10-03T10:07:29.004Z,999.11
2023-10-03T10:08:30.797Z,999.12
2023-10-03T10:09:29.172Z,999.12
2023-10-03T10:10:28.989Z,999.13
2023-10-03T10:11:28.970Z,999.14
2023-10-03T10:12:28.979Z,999.18
2023-10-03T10:13:28.881Z,999.20
2023-10-03T10:14:28.941Z,999.32
2023-10-03T10:15:28.906Z,999.23
2023-10-03T10:16:28.993Z,999.30
2023-10-03T10:17:28.889Z,999.35
2023-10-03T10:18:28.990Z,999.29
2023-10-03T10:19:28.821Z,999.36
2023-10-03T10:20:28.827Z,999.35
2023-10-03T10:21:28.868Z,999.46
2023-10-03T10:22:28.822Z,999.38
2023-10-03T10:23:28.797Z,999.37
2023-10-03T10:24:28.793Z,999.44
2023-10-03T10:25:28.784Z,999.34
2023-10-03T10:26:28.782Z,999.35
2023-10-03T10:27:28.760Z,999.36
2023-10-03T10:28:28.819Z,999.41
2023-10-03T10:29:28.736Z,999.47
2023-10-03T10:30:28.745Z,999.43
2023-10-03T10:31:28.750Z,999.52
2023-10-03T10:32:28.720Z,999.48
2023-10-03T10:33:28.795Z,999.47
2023-10-03T10:34:28.683Z,999.41
2023-10-03T10:35:28.750Z,999.45
2023-10-03T10:36:28.693Z,999.42
2023-10-03T10:37:28.641Z,999.46
2023-10-03T10:38:28.658Z,999.43
2023-10-03T10:39:28.675Z,999.52
2023-10-03T10:40:28.658Z,999.54
2023-10-03T10:41:28.605Z,999.60
2023-10-03T10:42:28.641Z,999.63
2023-10-03T10:43:28.623Z,999.66
2023-10-03T10:44:28.602Z,999.70
2023-10-03T10:45:28.624Z,999.74
2023-10-03T10:46:28.554Z,999.67
2023-10-03T10:47:28.564Z,999.66
2023-10-03T10:48:28.632Z,999.63
2023-10-03T10:49:28.551Z,999.67
2023-10-03T10:50:28.532Z,999.71
2023-10-03T10:51:28.545Z,999.72
2023-10-03T10:52:28.532Z,999.68
2023-10-03T10:53:28.465Z,999.71
2023-10-03T10:54:28.501Z,999.74
2023-10-03T10:55:28.491Z,999.79
2023-10-03T10:56:28.448Z,999.82
2023-10-03T10:57:28.431Z,999.86
2023-10-03T10:58:28.465Z,999.88
2023-10-03T10:59:28.434Z,999.90
2023-10-03T11:00:28.427Z,999.94
2023-10-03T11:01:28.424Z,999.97
2023-10-03T11:02:28.487Z,999.99
2023-10-03T11:03:28.528Z,999.97
2023-10-03T11:04:28.405Z,1000.01
2023-10-03T11:05:28.382Z,1000.05
2023-10-03T11:06:28.339Z,1000.10
2023-10-03T11:07:28.345Z,1000.11
2023-10-03T11:08:28.389Z,1000.22
2023-10-03T11:09:28.331Z,1000.24
2023-10-03T11:10:34.813Z,1000.28
2023-10-03T11:11:28.385Z,1000.26
2023-10-03T11:12:28.318Z,1000.29
2023-10-03T11:13:28.311Z,1000.30
2023-10-03T11:14:28.258Z,1000.37
2023-10-03T11:15:28.242Z,1000.43
2023-10-03T11:16:28.259Z,1000.50
2023-10-03T11:17:28.305Z,1000.50
2023-10-03T11:18:28.337Z,1000.51
2023-10-03T11:19:28.276Z,1000.52
2023-10-03T11:20:28.193Z,1000.55
2023-10-03T11:21:28.198Z,1000.56
2023-10-03T11:22:28.204Z,1000.54
2023-10-03T11:23:28.421Z,1000.52
2023-10-03T11:24:28.179Z,1000.49
2023-10-03T11:25:28.139Z,1000.43
2023-10-03T11:26:29.001Z,1000.45
2023-10-03T11:27:28.228Z,1000.44
2023-10-03T11:28:28.161Z,1000.45
2023-10-03T11:29:28.120Z,1000.38
2023-10-03T11:30:28.109Z,1000.42
2023-10-03T11:31:28.142Z,1000.37
2023-10-03T11:32:28.138Z,1000.34
2023-10-03T11:33:28.162Z,1000.36
2023-10-03T11:34:28.059Z,1000.40
2023-10-03T11:35:28.052Z,1000.36
2023-10-03T11:36:28.045Z,1000.46
2023-10-03T11:37:28.054Z,1000.32
2023-10-03T11:38:28.061Z,1000.38
2023-10-03T11:39:27.997Z,1000.41
2023-10-03T11:40:29.863Z,1000.43
2023-10-03T11:41:27.997Z,1000.47
2023-10-03T11:42:28.034Z,1000.47
2023-10-03T11:43:27.951Z,1000.51
2023-10-03T11:44:27.940Z,1000.53
2023-10-03T11:45:28.035Z,1000.53
2023-10-03T11:46:27.972Z,1000.55
2023-10-03T11:47:27.999Z,1000.50
2023-10-03T11:48:28.075Z,1000.49
2023-10-03T11:49:27.904Z,1000.49
2023-10-03T11:50:27.913Z,1000.47
2023-10-03T11:51:27.912Z,1000.48
2023-10-03T11:52:27.887Z,1000.49
2023-10-03T11:53:27.849Z,1000.50
2023-10-03T11:54:27.905Z,1000.51
2023-10-03T11:55:27.843Z,1000.49
2023-10-03T11:56:27.849Z,1000.50
2023-10-03T11:57:27.805Z,1000.52
2023-10-03T11:58:27.804Z,1000.59
2023-10-03T11:59:27.821Z,1000.58
2023-10-03T12:00:27.794Z,1000.67
2023-10-03T12:01:27.806Z,1000.70
2023-10-03T12:02:27.785Z,1000.72
2023-10-03T12:03:27.808Z,1000.71
2023-10-03T12:04:27.840Z,1000.74
2023-10-03T12:05:27.718Z,1000.76
2023-10-03T12:06:27.712Z,1000.81
2023-10-03T12:07:29.960Z,1000.87
2023-10-03T12:08:27.735Z,1000.90
2023-10-03T12:09:27.701Z,1000.88
2023-10-03T12:10:27.811Z,1000.93
2023-10-03T12:11:27.714Z,1000.83
2023-10-03T12:12:27.677Z,1000.85
2023-10-03T12:13:27.656Z,1000.86
2023-10-03T12:14:27.658Z,1000.93
2023-10-03T12:15:27.716Z,1000.95
2023-10-03T12:16:27.607Z,1000.96
2023-10-03T12:17:27.690Z,1000.91
2023-10-03T12:18:27.675Z,1000.91
2023-10-03T12:19:27.685Z,1000.89
2023-10-03T12:20:27.591Z,1000.96
2023-10-03T12:21:27.560Z,1000.99
2023-10-03T12:22:27.584Z,1001.02
2023-10-03T12:23:27.564Z,1001.08
2023-10-03T12:24:27.522Z,1001.12
2023-10-03T12:25:27.582Z,1001.13